Observation data for Olton on 06/14/2019      Previous  Date       Current Mesonet Observations  Soil Data  Daily Summary Page  Observations in Plain Language
KONS 140500Z 16014KT 23/14 A30 RMK A01 T02300139  RH  058%=      5-min Rain = 0
KONS 140505Z 16015KT 23/14 A30 RMK A01 T02310138  RH  057%=      5-min Rain = 0
KONS 140510Z 16015G20KT 23/14 A30 RMK A01 T02310139  RH  057%=      5-min Rain = 0
KONS 140515Z 16015KT 23/14 A30 RMK A01 T02310139  RH  057%=      5-min Rain = 0
KONS 140520Z 16016G22KT 23/14 A3001 RMK A01 T02320139  RH  057%=      5-min Rain = 0
KONS 140525Z 17016G22KT 23/14 A3001 RMK A01 T02320139  RH  057%=      5-min Rain = 0
KONS 140530Z 17017G23KT 23/14 A3001 RMK A01 T02320140  RH  057%=      5-min Rain = 0
KONS 140535Z 17017G22KT 23/14 A3001 RMK A01 T02320140  RH  057%=      5-min Rain = 0
KONS 140540Z 17017G22KT 23/14 A30 RMK A01 T02330140  RH  057%=      5-min Rain = 0
KONS 140545Z 17017G22KT 23/14 A30 RMK A01 T02310141  RH  058%=      5-min Rain = 0
KONS 140550Z 17018G24KT 23/14 A30 RMK A01 T02310141  RH  058%=      5-min Rain = 0
KONS 140555Z 17018G23KT 23/14 A2999 RMK A01 T02300141  RH  058%=      5-min Rain = 0
KONS 140600Z 17017G24KT 23/14 A2999 RMK A01 T02300142  RH  059%=      5-min Rain = 0
KONS 140605Z 17017G24KT 23/14 A2999 RMK A01 T02290142  RH  059%=      5-min Rain = 0
KONS 140610Z 17018G25KT 23/14 A2999 RMK A01 T02290143  RH  060%=      5-min Rain = 0
KONS 140615Z 17017G24KT 23/14 A2999 RMK A01 T02290144  RH  060%=      5-min Rain = 0
KONS 140620Z 17016G23KT 23/15 A2999 RMK A01 T02280145  RH  061%=      5-min Rain = 0
KONS 140625Z 17017G22KT 23/15 A2999 RMK A01 T02280146  RH  061%=      5-min Rain = 0
KONS 140630Z 16018KT 23/15 A2999 RMK A01 T02280147  RH  061%=      5-min Rain = 0
KONS 140635Z 17015G20KT 23/15 A2999 RMK A01 T02280148  RH  062%=      5-min Rain = 0
KONS 140640Z 17015G22KT 23/15 A2999 RMK A01 T02270148  RH  062%=      5-min Rain = 0
KONS 140645Z 17012G17KT 23/15 A30 RMK A01 T02260149  RH  063%=      5-min Rain = 0
KONS 140650Z 17013G18KT 23/15 A30 RMK A01 T02260150  RH  063%=      5-min Rain = 0
KONS 140655Z 17012G17KT 23/15 A3001 RMK A01 T02260151  RH  064%=      5-min Rain = 0
KONS 140700Z 17012G17KT 23/15 A3002 RMK A01 T02260151  RH  064%=      5-min Rain = 0
KONS 140705Z 15008KT 23/15 A3002 RMK A01 T02250152  RH  065%=      5-min Rain = 0
KONS 140710Z 14006KT 23/15 A3003 RMK A01 T02260152  RH  065%=      5-min Rain = 0
KONS 140715Z 12007KT 22/15 A3004 RMK A01 T02240153  RH  066%=      5-min Rain = 0
KONS 140720Z 12007KT 22/15 A3004 RMK A01 T02230154  RH  066%=      5-min Rain = 0
KONS 140725Z 13007KT 22/16 A3004 RMK A01 T02220155  RH  067%=      5-min Rain = 0
KONS 140730Z 14007KT 22/16 A3004 RMK A01 T02210155  RH  068%=      5-min Rain = 0
KONS 140735Z 14007KT 22/16 A3004 RMK A01 T02200156  RH  068%=      5-min Rain = 0
KONS 140740Z 14008KT 22/16 A3004 RMK A01 T02210156  RH  068%=      5-min Rain = 0
KONS 140745Z 14010G17KT 22/16 A3003 RMK A01 T02220156  RH  068%=      5-min Rain = 0
KONS 140750Z 13010G15KT 22/16 A3003 RMK A01 T02220156  RH  068%=      5-min Rain = 0
KONS 140755Z 12008G13KT 22/16 A3003 RMK A01 T02220156  RH  068%=      5-min Rain = 0
KONS 140800Z 13010KT 22/16 A3003 RMK A01 T02220157  RH  068%=      5-min Rain = 0
KONS 140805Z 12008KT 22/16 A3003 RMK A01 T02200157  RH  069%=      5-min Rain = 0
KONS 140810Z 13009G14KT 22/16 A3002 RMK A01 T02180158  RH  070%=      5-min Rain = 0
KONS 140815Z 14009KT 22/16 A3002 RMK A01 T02170158  RH  071%=      5-min Rain = 0
KONS 140820Z 13010KT 22/16 A3001 RMK A01 T02150159  RH  072%=      5-min Rain = 0
KONS 140825Z 14012KT 21/16 A30 RMK A01 T02120159  RH  073%=      5-min Rain = 0
KONS 140830Z 14012KT 21/16 A2999 RMK A01 T02120160  RH  074%=      5-min Rain = 0
KONS 140835Z 14011G17KT 21/16 A2999 RMK A01 T02120160  RH  074%=      5-min Rain = 0
KONS 140840Z 12006KT 21/16 A30 RMK A01 T02120161  RH  074%=      5-min Rain = 0
KONS 140845Z 07003KT 21/16 A3001 RMK A01 T02120161  RH  074%=      5-min Rain = 0
KONS 140850Z 08005KT 21/16 A3001 RMK A01 T02100161  RH  075%=      5-min Rain = 0
KONS 140855Z 10006KT 21/16 A3001 RMK A01 T02080161  RH  076%=      5-min Rain = 0
KONS 140900Z 12005KT 21/16 A3001 RMK A01 T02080162  RH  077%=      5-min Rain = 0
KONS 140905Z 12007KT 21/16 A3001 RMK A01 T02070163  RH  078%=      5-min Rain = 0
KONS 140910Z 13009KT 21/16 A3001 RMK A01 T02050164  RH  079%=      5-min Rain = 0
KONS 140915Z 13008KT 21/16 A30 RMK A01 T02050164  RH  079%=      5-min Rain = 0
KONS 140920Z 13008KT 21/17 A30 RMK A01 T02050165  RH  080%=      5-min Rain = 0
KONS 140925Z 12008KT 21/17 A2999 RMK A01 T02050166  RH  080%=      5-min Rain = 0
KONS 140930Z 12008KT 20/17 A2999 RMK A01 T02040166  RH  081%=      5-min Rain = 0
KONS 140935Z 11008KT 20/17 A2999 RMK A01 T02030166  RH  081%=      5-min Rain = 0
KONS 140940Z 09008KT 20/17 A30 RMK A01 T02020165  RH  081%=      5-min Rain = 0
KONS 140945Z 09008KT 20/17 A30 RMK A01 T02020165  RH  081%=      5-min Rain = 0
KONS 140950Z 09008KT 20/16 A30 RMK A01 T02010163  RH  081%=      5-min Rain = 0
KONS 140955Z 09007KT 20/16 A30 RMK A01 T01970162  RH  082%=      5-min Rain = 0
KONS 141000Z 10007KT 20/16 A30 RMK A01 T01960161  RH  082%=      5-min Rain = 0
KONS 141005Z 11009KT 20/16 A30 RMK A01 T01960161  RH  082%=      5-min Rain = 0
KONS 141010Z 11009KT 20/16 A2999 RMK A01 T01970162  RH  082%=      5-min Rain = 0
KONS 141015Z 12009KT 20/16 A2999 RMK A01 T01960162  RH  082%=      5-min Rain = 0
KONS 141020Z 13008KT 19/16 A2999 RMK A01 T01940162  RH  084%=      5-min Rain = 0
KONS 141025Z 13008KT 19/16 A2999 RMK A01 T01920162  RH  085%=      5-min Rain = 0
KONS 141030Z 13008KT 19/16 A2999 RMK A01 T01910163  RH  086%=      5-min Rain = 0
KONS 141035Z 13009KT 19/16 A2999 RMK A01 T01900164  RH  087%=      5-min Rain = 0
KONS 141040Z 14010KT 19/16 A2999 RMK A01 T01900164  RH  087%=      5-min Rain = 0
KONS 141045Z 14011KT 19/17 A2998 RMK A01 T01900165  RH  087%=      5-min Rain = 0
KONS 141050Z 14011KT 19/17 A2998 RMK A01 T01900165  RH  087%=      5-min Rain = 0
KONS 141055Z 15011KT 19/16 A2998 RMK A01 T01900164  RH  087%=      5-min Rain = 0
KONS 141100Z 15011KT 19/16 A2998 RMK A01 T01900164  RH  087%=      5-min Rain = 0
KONS 141105Z 15011KT 19/16 A2998 RMK A01 T01900164  RH  087%=      5-min Rain = 0
KONS 141110Z 15011KT 19/16 A2997 RMK A01 T01890164  RH  087%=      5-min Rain = 0
KONS 141115Z 14011KT 19/16 A2997 RMK A01 T01890164  RH  087%=      5-min Rain = 0
KONS 141120Z 15011KT 19/16 A2997 RMK A01 T01890164  RH  087%=      5-min Rain = 0
KONS 141125Z 15011KT 19/16 A2997 RMK A01 T01890164  RH  088%=      5-min Rain = 0
KONS 141130Z 15011KT 19/16 A2997 RMK A01 T01890164  RH  088%=      5-min Rain = 0
KONS 141135Z 15012KT 19/17 A2997 RMK A01 T01890165  RH  088%=      5-min Rain = 0
KONS 141140Z 15013KT 19/17 A2996 RMK A01 T01890165  RH  088%=      5-min Rain = 0
KONS 141145Z 16014KT 19/17 A2996 RMK A01 T01900165  RH  087%=      5-min Rain = 0
KONS 141150Z 16014KT 19/16 A2995 RMK A01 T01890164  RH  087%=      5-min Rain = 0
KONS 141155Z 17014G19KT 19/17 A2995 RMK A01 T01890165  RH  088%=      5-min Rain = 0
KONS 141200Z 17013KT 19/16 A2995 RMK A01 T01890164  RH  088%=      5-min Rain = 0
KONS 141205Z 17013KT 19/16 A2995 RMK A01 T01890164  RH  088%=      5-min Rain = 0
KONS 141210Z 16015KT 19/17 A2995 RMK A01 T01890165  RH  088%=      5-min Rain = 0
KONS 141215Z 16014KT 19/16 A2995 RMK A01 T01890164  RH  088%=      5-min Rain = 0
KONS 141220Z 16014KT 19/17 A2995 RMK A01 T01890165  RH  088%=      5-min Rain = 0
KONS 141225Z 16014KT 19/17 A2995 RMK A01 T01890165  RH  088%=      5-min Rain = 0
KONS 141230Z 16014G19KT 19/17 A2995 RMK A01 T01900165  RH  088%=      5-min Rain = 0
KONS 141235Z 16014G19KT 19/17 A2995 RMK A01 T01910165  RH  087%=      5-min Rain = 0
KONS 141240Z 16014G19KT 19/17 A2996 RMK A01 T01920166  RH  087%=      5-min Rain = 0
KONS 141245Z 16014G19KT 20/17 A2996 RMK A01 T01950167  RH  086%=      5-min Rain = 0
KONS 141250Z 16015KT 20/17 A2996 RMK A01 T01980167  RH  084%=      5-min Rain = 0
KONS 141255Z 16014G21KT 20/17 A2995 RMK A01 T01980166  RH  084%=      5-min Rain = 0
KONS 141300Z 16016KT 20/17 A2995 RMK A01 T02000166  RH  083%=      5-min Rain = 0
KONS 141305Z 17017KT 20/17 A2995 RMK A01 T02020166  RH  082%=      5-min Rain = 0
KONS 141310Z 17016G23KT 20/17 A2995 RMK A01 T02040166  RH  080%=      5-min Rain = 0
KONS 141315Z 17017G24KT 21/16 A2996 RMK A01 T02060164  RH  079%=      5-min Rain = 0
KONS 141320Z 17016G23KT 21/16 A2995 RMK A01 T02080164  RH  078%=      5-min Rain = 0
KONS 141325Z 17018KT 21/16 A2995 RMK A01 T02100161  RH  075%=      5-min Rain = 0
KONS 141330Z 18020G26KT 21/16 A2996 RMK A01 T02110158  RH  074%=      5-min Rain = 0
KONS 141335Z 18019G24KT 21/16 A2996 RMK A01 T02110157  RH  073%=      5-min Rain = 0
KONS 141340Z 18017KT 21/16 A2996 RMK A01 T02110158  RH  073%=      5-min Rain = 0
KONS 141345Z 18016KT 21/16 A2996 RMK A01 T02110157  RH  073%=      5-min Rain = 0
KONS 141350Z 18016G22KT 21/16 A2996 RMK A01 T02110156  RH  072%=      5-min Rain = 0
KONS 141355Z 18017G22KT 21/15 A2996 RMK A01 T02130154  RH  071%=      5-min Rain = 0
KONS 141400Z 18015KT 22/16 A2996 RMK A01 T02150155  RH  070%=      5-min Rain = 0
KONS 141405Z 18014G19KT 22/16 A2996 RMK A01 T02200156  RH  069%=      5-min Rain = 0
KONS 141410Z 18016G21KT 22/15 A2996 RMK A01 T02230153  RH  066%=      5-min Rain = 0
KONS 141415Z 19016G21KT 23/15 A2996 RMK A01 T02260150  RH  063%=      5-min Rain = 0
KONS 141420Z 19018G23KT 23/15 A2995 RMK A01 T02270146  RH  061%=      5-min Rain = 0
KONS 141425Z 19015G20KT 23/15 A2995 RMK A01 T02280146  RH  061%=      5-min Rain = 0
KONS 141430Z 20016G21KT 23/15 A2995 RMK A01 T02320147  RH  060%=      5-min Rain = 0
KONS 141435Z 20016G21KT 24/15 A2995 RMK A01 T02360145  RH  058%=      5-min Rain = 0
KONS 141440Z 19016G21KT 24/14 A2995 RMK A01 T02350143  RH  057%=      5-min Rain = 0
KONS 141445Z 20016G21KT 24/14 A2995 RMK A01 T02410143  RH  055%=      5-min Rain = 0
KONS 141450Z 20016KT 25/14 A2995 RMK A01 T02460140  RH  053%=      5-min Rain = 0
KONS 141455Z 20016G21KT 25/14 A2995 RMK A01 T02490140  RH  052%=      5-min Rain = 0
KONS 141500Z 20015G21KT 25/14 A2995 RMK A01 T02530140  RH  050%=      5-min Rain = 0
KONS 141505Z 20018G25KT 25/14 A2995 RMK A01 T02520136  RH  049%=      5-min Rain = 0
KONS 141510Z 20017G23KT 25/14 A2995 RMK A01 T02510138  RH  051%=      5-min Rain = 0
KONS 141515Z 21014G20KT 25/13 A2995 RMK A01 T02500134  RH  049%=      5-min Rain = 0
KONS 141520Z 21014G19KT 25/13 A2994 RMK A01 T02500134  RH  050%=      5-min Rain = 0
KONS 141525Z 20016KT 25/14 A2994 RMK A01 T02530135  RH  049%=      5-min Rain = 0
KONS 141530Z 20016G22KT 26/14 A2994 RMK A01 T02560135  RH  048%=      5-min Rain = 0
KONS 141535Z 21016KT 26/14 A2994 RMK A01 T02590138  RH  048%=      5-min Rain = 0
KONS 141540Z 21017G22KT 26/13 A2994 RMK A01 T02570133  RH  047%=      5-min Rain = 0
KONS 141545Z 21016KT 26/13 A2994 RMK A01 T02550132  RH  047%=      5-min Rain = 0
KONS 141550Z 21017KT 26/13 A2994 RMK A01 T02570131  RH  046%=      5-min Rain = 0
KONS 141555Z 21016KT 26/13 A2993 RMK A01 T02580130  RH  046%=      5-min Rain = 0
KONS 141600Z 21017G22KT 26/13 A2993 RMK A01 T02610131  RH  046%=      5-min Rain = 0
KONS 141605Z 21016G21KT 26/13 A2993 RMK A01 T02620129  RH  045%=      5-min Rain = 0
KONS 141610Z 22018G25KT 27/13 A2993 RMK A01 T02720128  RH  042%=      5-min Rain = 0
KONS 141615Z 21019G24KT 28/13 A2993 RMK A01 T02790131  RH  041%=      5-min Rain = 0
KONS 141620Z 22018G24KT 28/13 A2993 RMK A01 T02760126  RH  040%=      5-min Rain = 0
KONS 141625Z 22016G23KT 27/13 A2992 RMK A01 T02740127  RH  041%=      5-min Rain = 0
KONS 141630Z 21015G20KT 28/13 A2992 RMK A01 T02750129  RH  041%=      5-min Rain = 0
KONS 141635Z 21016G22KT 28/13 A2992 RMK A01 T02810129  RH  040%=      5-min Rain = 0
KONS 141640Z 21016G23KT 29/13 A2992 RMK A01 T02860126  RH  038%=      5-min Rain = 0
KONS 141645Z 21015G20KT 29/13 A2992 RMK A01 T02940129  RH  037%=      5-min Rain = 0
KONS 141650Z 21016G21KT 30/13 A2992 RMK A01 T03000127  RH  035%=      5-min Rain = 0
KONS 141655Z 21015G21KT 30/13 A2992 RMK A01 T03010130  RH  036%=      5-min Rain = 0
KONS 141700Z 21017G22KT 31/13 A2991 RMK A01 T03050128  RH  034%=      5-min Rain = 0
KONS 141705Z 20017G22KT 31/13 A2991 RMK A01 T03060132  RH  035%=      5-min Rain = 0
KONS 141710Z 19016G22KT 31/13 A2991 RMK A01 T03070132  RH  035%=      5-min Rain = 0
KONS 141715Z 20016G21KT 31/13 A2991 RMK A01 T03090132  RH  035%=      5-min Rain = 0
KONS 141720Z 21016G23KT 32/13 A2991 RMK A01 T03150128  RH  033%=      5-min Rain = 0
KONS 141725Z 21016G22KT 32/13 A2991 RMK A01 T03180127  RH  032%=      5-min Rain = 0
KONS 141730Z 20017G22KT 32/13 A2991 RMK A01 T03210127  RH  031%=      5-min Rain = 0
KONS 141735Z 21018G23KT 32/12 A299 RMK A01 T03150122  RH  031%=      5-min Rain = 0
KONS 141740Z 20019G26KT 32/12 A299 RMK A01 T03150119  RH  031%=      5-min Rain = 0
KONS 141745Z 21015KT 32/12 A299 RMK A01 T03180124  RH  031%=      5-min Rain = 0
KONS 141750Z 19019KT 32/12 A299 RMK A01 T03180122  RH  031%=      5-min Rain = 0
KONS 141755Z 20017G22KT 31/12 A299 RMK A01 T03120121  RH  032%=      5-min Rain = 0
KONS 141800Z 20017G22KT 32/12 A2989 RMK A01 T03190123  RH  031%=      5-min Rain = 0
KONS 141805Z 20017G24KT 33/13 A2989 RMK A01 T03250126  RH  030%=      5-min Rain = 0
KONS 141810Z 21018G24KT 33/12 A2989 RMK A01 T03270124  RH  030%=      5-min Rain = 0
KONS 141815Z 21016G24KT 33/13 A2989 RMK A01 T03250126  RH  030%=      5-min Rain = 0
KONS 141820Z 20018G24KT 33/13 A2989 RMK A01 T03280127  RH  030%=      5-min Rain = 0
KONS 141825Z 20018G26KT 33/12 A2988 RMK A01 T03280123  RH  029%=      5-min Rain = 0
KONS 141830Z 21018G26KT 33/12 A2988 RMK A01 T03280123  RH  029%=      5-min Rain = 0
KONS 141835Z 20020G25KT 32/12 A2988 RMK A01 T03220118  RH  029%=      5-min Rain = 0
KONS 141840Z 20021G26KT 33/12 A2988 RMK A01 T03250117  RH  028%=      5-min Rain = 0
KONS 141845Z 21020G26KT 33/12 A2988 RMK A01 T03290118  RH  028%=      5-min Rain = 0
KONS 141850Z 20020G28KT 33/12 A2987 RMK A01 T03270117  RH  028%=      5-min Rain = 0
KONS 141855Z 20020G30KT 33/12 A2987 RMK A01 T03340115  RH  027%=      5-min Rain = 0
KONS 141900Z 20020G27KT 33/12 A2987 RMK A01 T03280116  RH  028%=      5-min Rain = 0
KONS 141905Z 21021G28KT 34/12 A2987 RMK A01 T03360115  RH  027%=      5-min Rain = 0
KONS 141910Z 21020G27KT 33/11 A2987 RMK A01 T03310109  RH  026%=      5-min Rain = 0
KONS 141915Z 22019G24KT 32/11 A2987 RMK A01 T03230106  RH  027%=      5-min Rain = 0
KONS 141920Z 21021G27KT 32/12 A2987 RMK A01 T03240115  RH  028%=      5-min Rain = 0
KONS 141925Z 20020G27KT 33/11 A2987 RMK A01 T03330114  RH  027%=      5-min Rain = 0
KONS 141930Z 20021G28KT 33/12 A2986 RMK A01 T03310115  RH  027%=      5-min Rain = 0
KONS 141935Z 19021G26KT 33/12 A2987 RMK A01 T03300120  RH  028%=      5-min Rain = 0
KONS 141940Z 20021G27KT 33/12 A2986 RMK A01 T03330119  RH  028%=      5-min Rain = 0
KONS 141945Z 19019G24KT 32/12 A2986 RMK A01 T03230118  RH  029%=      5-min Rain = 0
KONS 141950Z 20021G26KT 33/12 A2986 RMK A01 T03290117  RH  028%=      5-min Rain = 0
KONS 141955Z 20018G25KT 33/12 A2986 RMK A01 T03300117  RH  028%=      5-min Rain = 0
KONS 142000Z 20016G23KT 32/12 A2986 RMK A01 T03220118  RH  029%=      5-min Rain = 0
KONS 142005Z 20017G22KT 33/11 A2986 RMK A01 T03310114  RH  027%=      5-min Rain = 0
KONS 142010Z 19018G24KT 34/11 A2986 RMK A01 T03370110  RH  026%=      5-min Rain = 0
KONS 142015Z 19016G22KT 34/11 A2985 RMK A01 T03430106  RH  024%=      5-min Rain = 0
KONS 142020Z 20018G23KT 34/10 A2985 RMK A01 T03390099  RH  023%=      5-min Rain = 0
KONS 142025Z 20014G20KT 34/10 A2985 RMK A01 T03390102  RH  024%=      5-min Rain = 0
KONS 142030Z 20017G25KT 34/09 A2985 RMK A01 T03440094  RH  022%=      5-min Rain = 0
KONS 142035Z 20016G22KT 35/10 A2985 RMK A01 T03460098  RH  022%=      5-min Rain = 0
KONS 142040Z 19019G25KT 35/10 A2985 RMK A01 T03450101  RH  023%=      5-min Rain = 0
KONS 142045Z 19019G25KT 34/10 A2984 RMK A01 T03420097  RH  023%=      5-min Rain = 0
KONS 142050Z 19018G25KT 35/10 A2984 RMK A01 T03460096  RH  022%=      5-min Rain = 0
KONS 142055Z 20019G26KT 35/09 A2984 RMK A01 T03460091  RH  021%=      5-min Rain = 0
KONS 142100Z 20019G26KT 35/09 A2984 RMK A01 T03470087  RH  021%=      5-min Rain = 0
KONS 142105Z 19019G27KT 35/09 A2984 RMK A01 T03480092  RH  021%=      5-min Rain = 0
KONS 142110Z 20020G26KT 35/09 A2984 RMK A01 T03490089  RH  021%=      5-min Rain = 0
KONS 142115Z 19018G26KT 35/09 A2983 RMK A01 T03470087  RH  021%=      5-min Rain = 0
KONS 142120Z 19018G25KT 35/09 A2983 RMK A01 T03490087  RH  020%=      5-min Rain = 0
KONS 142125Z 18019G25KT 35/09 A2983 RMK A01 T03520086  RH  020%=      5-min Rain = 0
KONS 142130Z 19020G25KT 35/08 A2983 RMK A01 T03480075  RH  019%=      5-min Rain = 0
KONS 142135Z 19017G22KT 35/08 A2983 RMK A01 T03470077  RH  019%=      5-min Rain = 0
KONS 142140Z 19014G21KT 34/08 A2983 RMK A01 T03380077  RH  020%=      5-min Rain = 0
KONS 142145Z 19014G19KT 34/08 A2983 RMK A01 T03350080  RH  021%=      5-min Rain = 0
KONS 142150Z 19015G21KT 34/08 A2982 RMK A01 T03400080  RH  020%=      5-min Rain = 0
KONS 142155Z 19017G22KT 34/07 A2982 RMK A01 T03410073  RH  019%=      5-min Rain = 0
KONS 142200Z 21014G19KT 34/07 A2982 RMK A01 T03380067  RH  019%=      5-min Rain = 0
KONS 142205Z 21015G22KT 33/07 A2982 RMK A01 T03340067  RH  019%=      5-min Rain = 0
KONS 142210Z 20013G18KT 34/06 A2982 RMK A01 T03350060  RH  018%=      5-min Rain = 0
KONS 142215Z 20016G21KT 33/07 A2982 RMK A01 T03330065  RH  019%=      5-min Rain = 0
KONS 142220Z 20016G22KT 33/07 A2982 RMK A01 T03330067  RH  020%=      5-min Rain = 0
KONS 142225Z 20016G21KT 33/06 A2982 RMK A01 T03330062  RH  019%=      5-min Rain = 0
KONS 142230Z 21016G21KT 33/07 A2982 RMK A01 T03300066  RH  020%=      5-min Rain = 0
KONS 142235Z 21015KT 33/07 A2982 RMK A01 T03290068  RH  020%=      5-min Rain = 0
KONS 142240Z 21014KT 33/07 A2982 RMK A01 T03280065  RH  020%=      5-min Rain = 0
KONS 142245Z 21014KT 33/07 A2982 RMK A01 T03280068  RH  020%=      5-min Rain = 0
KONS 142250Z 21013G18KT 33/07 A2982 RMK A01 T03250067  RH  020%=      5-min Rain = 0
KONS 142255Z 21012G18KT 32/06 A2982 RMK A01 T03240062  RH  020%=      5-min Rain = 0
KONS 142300Z 21010KT 32/07 A2982 RMK A01 T03180069  RH  021%=      5-min Rain = 0
KONS 142305Z 21010KT 32/07 A2982 RMK A01 T03170069  RH  022%=      5-min Rain = 0
KONS 142310Z 21009KT 31/07 A2981 RMK A01 T03120073  RH  023%=      5-min Rain = 0
KONS 142315Z 20007KT 31/08 A2981 RMK A01 T03100075  RH  023%=      5-min Rain = 0
KONS 142320Z 19009KT 31/08 A298 RMK A01 T03070077  RH  024%=      5-min Rain = 0
KONS 142325Z 21008KT 31/07 A298 RMK A01 T03090069  RH  023%=      5-min Rain = 0
KONS 142330Z 20008KT 31/05 A298 RMK A01 T03100052  RH  020%=      5-min Rain = 0
KONS 142335Z 19009KT 31/04 A298 RMK A01 T03090042  RH  019%=      5-min Rain = 0
KONS 142340Z 18010KT 31/07 A2979 RMK A01 T03060067  RH  023%=      5-min Rain = 0
KONS 142345Z 18009KT 31/08 A298 RMK A01 T03070080  RH  025%=      5-min Rain = 0
KONS 142350Z 19009KT 30/09 A298 RMK A01 T03040090  RH  027%=      5-min Rain = 0
KONS 142355Z 22011KT 30/11 A2981 RMK A01 T02960110  RH  032%=      5-min Rain = 0
KONS 150000Z 22011KT 28/12 A2981 RMK A01 T02830121  RH  037%=      5-min Rain = 0
KONS 150005Z 24018G25KT 28/12 A2983 RMK A01 T02770119  RH  038%=      5-min Rain = 0.01
KONS 150010Z 29024G34KT 23/12 A2983 RMK A01 T02340118  RH  049%=      5-min Rain = 0.07
KONS 150015Z 29010G26KT 25/10 A2983 RMK A01 T02520102  RH  039%=      5-min Rain = 0.03
KONS 150020Z 24010G16KT 25/11 A2982 RMK A01 T02530114  RH  043%=      5-min Rain = 0.03
KONS 150025Z 17011KT 24/13 A2981 RMK A01 T02360127  RH  051%=      5-min Rain = 0
KONS 150030Z 19013G23KT 24/13 A2981 RMK A01 T02410128  RH  050%=      5-min Rain = 0
KONS 150035Z 18022G30KT 26/12 A2981 RMK A01 T02620122  RH  042%=      5-min Rain = 0
KONS 150040Z 18020G26KT 25/12 A2981 RMK A01 T02510123  RH  046%=      5-min Rain = 0.01
KONS 150045Z 18016KT 24/13 A2982 RMK A01 T02370133  RH  053%=      5-min Rain = 0
KONS 150050Z 16017KT 23/14 A2981 RMK A01 T02260136  RH  058%=      5-min Rain = 0.04
KONS 150055Z 15014KT 22/13 A298 RMK A01 T02240128  RH  056%=      5-min Rain = 0
KONS 150100Z 14013G18KT 22/13 A298 RMK A01 T02200127  RH  057%=      5-min Rain = 0
KONS 150105Z 14012KT 22/13 A2979 RMK A01 T02220131  RH  057%=      5-min Rain = 0
KONS 150110Z 14012KT 22/14 A2979 RMK A01 T02220137  RH  060%=      5-min Rain = 0
KONS 150115Z 14015G20KT 23/13 A2979 RMK A01 T02330132  RH  054%=      5-min Rain = 0
KONS 150120Z 14016KT 25/12 A2979 RMK A01 T02490120  RH  045%=      5-min Rain = 0
KONS 150125Z 14015KT 25/12 A2979 RMK A01 T02450124  RH  048%=      5-min Rain = 0
KONS 150130Z 14013KT 24/12 A2979 RMK A01 T02440117  RH  046%=      5-min Rain = 0
KONS 150135Z 14012KT 24/12 A2979 RMK A01 T02410121  RH  048%=      5-min Rain = 0
KONS 150140Z 15011KT 24/13 A2979 RMK A01 T02400125  RH  049%=      5-min Rain = 0
KONS 150145Z 15011KT 24/13 A2979 RMK A01 T02410126  RH  050%=      5-min Rain = 0
KONS 150150Z 15010KT 24/13 A2979 RMK A01 T02390133  RH  052%=      5-min Rain = 0
KONS 150155Z 15011KT 24/13 A298 RMK A01 T02380133  RH  053%=      5-min Rain = 0
KONS 150200Z 14011KT 24/14 A298 RMK A01 T02370135  RH  054%=      5-min Rain = 0
KONS 150205Z 14010KT 24/14 A298 RMK A01 T02350136  RH  055%=      5-min Rain = 0
KONS 150210Z 15007KT 23/14 A298 RMK A01 T02290141  RH  059%=      5-min Rain = 0
KONS 150215Z 16008KT 22/14 A298 RMK A01 T02240144  RH  062%=      5-min Rain = 0
KONS 150220Z 17008KT 23/15 A298 RMK A01 T02250145  RH  062%=      5-min Rain = 0
KONS 150225Z 18008KT 24/14 A2979 RMK A01 T02380141  RH  056%=      5-min Rain = 0
KONS 150230Z 17010KT 24/14 A2979 RMK A01 T02390139  RH  055%=      5-min Rain = 0
KONS 150235Z 18010KT 24/14 A2979 RMK A01 T02430137  RH  053%=      5-min Rain = 0
KONS 150240Z 18010KT 24/14 A2979 RMK A01 T02410137  RH  053%=      5-min Rain = 0
KONS 150245Z 18010KT 24/14 A2979 RMK A01 T02350140  RH  056%=      5-min Rain = 0
KONS 150250Z 18009KT 23/14 A298 RMK A01 T02340137  RH  056%=      5-min Rain = 0
KONS 150255Z 18009KT 24/14 A298 RMK A01 T02350137  RH  055%=      5-min Rain = 0
KONS 150300Z 17009KT 23/14 A298 RMK A01 T02290139  RH  058%=      5-min Rain = 0
KONS 150305Z 17010KT 23/14 A298 RMK A01 T02260138  RH  058%=      5-min Rain = 0
KONS 150310Z 16010KT 23/13 A2981 RMK A01 T02270134  RH  057%=      5-min Rain = 0
KONS 150315Z 16010KT 23/13 A2981 RMK A01 T02270132  RH  056%=      5-min Rain = 0
KONS 150320Z 16012KT 23/13 A2981 RMK A01 T02270130  RH  055%=      5-min Rain = 0
KONS 150325Z 16017G22KT 24/13 A2981 RMK A01 T02390130  RH  051%=      5-min Rain = 0
KONS 150330Z 16020G26KT 26/14 A2981 RMK A01 T02550143  RH  051%=      5-min Rain = 0
KONS 150335Z 16017G22KT 26/15 A2982 RMK A01 T02560153  RH  054%=      5-min Rain = 0
KONS 150340Z 17018G25KT 26/16 A2982 RMK A01 T02570162  RH  057%=      5-min Rain = 0
KONS 150345Z 17020G26KT 26/16 A2983 RMK A01 T02590164  RH  057%=      5-min Rain = 0
KONS 150350Z 17020G26KT 26/17 A2983 RMK A01 T02590165  RH  057%=      5-min Rain = 0
KONS 150355Z 17020G26KT 26/17 A2983 RMK A01 T02570165  RH  058%=      5-min Rain = 0
KONS 150400Z 17020G25KT 26/17 A2984 RMK A01 T02560165  RH  059%=      5-min Rain = 0
KONS 150405Z 17018G25KT 25/17 A2984 RMK A01 T02540166  RH  059%=      5-min Rain = 0
KONS 150410Z 17017G24KT 25/17 A2984 RMK A01 T02520166  RH  060%=      5-min Rain = 0
KONS 150415Z 17018G23KT 25/17 A2984 RMK A01 T02520166  RH  060%=      5-min Rain = 0
KONS 150420Z 17018G23KT 25/17 A2984 RMK A01 T02500166  RH  061%=      5-min Rain = 0
KONS 150425Z 17017G22KT 25/17 A2984 RMK A01 T02470166  RH  062%=      5-min Rain = 0
KONS 150430Z 17016G22KT 25/17 A2984 RMK A01 T02460166  RH  062%=      5-min Rain = 0
KONS 150435Z 18016G21KT 24/17 A2984 RMK A01 T02440166  RH  063%=      5-min Rain = 0
KONS 150440Z 17017G22KT 24/17 A2984 RMK A01 T02440166  RH  063%=      5-min Rain = 0
KONS 150445Z 17017G22KT 24/17 A2984 RMK A01 T02420166  RH  064%=      5-min Rain = 0
KONS 150450Z 17018G23KT 24/17 A2984 RMK A01 T02420166  RH  064%=      5-min Rain = 0
KONS 150455Z 17018G24KT 24/17 A2984 RMK A01 T02410167  RH  065%=      5-min Rain = 0

Page generated in 0.0103 seconds.